Bookmark and Share
Track history (hours):
 

Nautic

Last reported at 2014-Apr-12 16:05 UTC. Time now 2014-Apr-17 21:48 UTC.
Position N 35°36' E 014°48'.

Length 274 m; draft 12.8 m.

Type: Tanker. MMSI: 636012754.

NotesDate/timePositionNaut miles runAvg speedWind from/ knotsBaromVisibWave heightAir tempDewpointWater temp
2014-Apr-12 16:05N 35°36' E 014°48'10 0.9
2014-Apr-12 04:33N 35°46' E 014°50'0 0.0
2014-Apr-12 03:33N 35°46' E 014°50'0 0.0
2014-Apr-12 02:14N 35°46' E 014°50'0 0.0
2014-Apr-12 01:32N 35°46' E 014°50'0 0.0
2014-Apr-12 00:27N 35°46' E 014°50'0 0.0
2014-Apr-11 23:33N 35°46' E 014°50'0 0.0
2014-Apr-11 21:32N 35°46' E 014°50'3 0.1
2014-Apr-09 18:25N 35°44' E 014°52'0 0.0
2014-Apr-09 17:31N 35°44' E 014°52'0 0.1
2014-Apr-09 16:31N 35°44' E 014°52'0 0.0
2014-Apr-09 15:16N 35°44' E 014°52'0 0.0
2014-Apr-09 14:25N 35°44' E 014°52'0 0.0
2014-Apr-09 13:10N 35°44' E 014°52'0 0.0
2014-Apr-09 12:31N 35°44' E 014°52'0 0.0
2014-Apr-09 11:31N 35°44' E 014°52'0 0.0
2014-Apr-09 10:31N 35°44' E 014°52'0 0.0
2014-Apr-09 09:31N 35°44' E 014°52'0 0.0
2014-Apr-09 08:31N 35°44' E 014°52'0 0.0
2014-Apr-09 07:31N 35°44' E 014°52'0 0.0
2014-Apr-09 05:28N 35°44' E 014°52'0 0.0
2014-Apr-09 04:28N 35°44' E 014°52'0 0.0
2014-Apr-09 03:22N 35°44' E 014°52'0 0.0
2014-Apr-09 02:31N 35°44' E 014°52'0 0.0
2014-Apr-09 01:28N 35°44' E 014°52'0 0.0
2014-Apr-09 00:31N 35°44' E 014°52'0 0.1
2014-Apr-08 23:31N 35°44' E 014°52'0 0.0
2014-Apr-08 22:31N 35°44' E 014°52'0 0.1
2014-Apr-08 21:28N 35°44' E 014°52'0 0.0
2014-Apr-08 20:31N 35°44' E 014°51'0 0.0
2014-Apr-08 19:31N 35°44' E 014°51'0 0.1
2014-Apr-08 18:31N 35°44' E 014°51'0 0.0
2014-Apr-08 17:31N 35°44' E 014°51'0 0.0
2014-Apr-08 15:31N 35°44' E 014°51'0 0.0
2014-Apr-08 14:10N 35°44' E 014°51'0 0.1
2014-Apr-08 12:31N 35°44' E 014°52'3 3.2
2014-Apr-08 11:33N 35°46' E 014°50'1 0.3
2014-Apr-08 09:10N 35°47' E 014°50'0 0.0
2014-Apr-07 22:07N 35°47' E 014°50'0 0.0
2014-Apr-07 21:28N 35°47' E 014°50'0 0.0
2014-Apr-07 20:31N 35°47' E 014°50'0 0.1
2014-Apr-07 19:31N 35°47' E 014°50'0 0.0
2014-Apr-07 17:28N 35°47' E 014°50'0 0.0
2014-Apr-07 16:31N 35°47' E 014°50'0 0.0
2014-Apr-07 15:31N 35°47' E 014°50'0 0.1
2014-Apr-07 14:28N 35°47' E 014°50'0 0.0
2014-Apr-07 13:31N 35°47' E 014°50'0 0.0
2014-Apr-07 12:31N 35°47' E 014°50'0 0.1
2014-Apr-07 11:25N 35°47' E 014°50'0 0.0
2014-Apr-07 10:22N 35°47' E 014°50'  
2014-Apr-04 20:11N 35°50' E 014°49'0 0.0
2014-Apr-04 18:32N 35°49' E 014°49'0 0.1
2014-Apr-04 16:32N 35°49' E 014°49'0 0.0
2014-Apr-04 13:17N 35°49' E 014°49'0 0.1
2014-Apr-04 12:29N 35°49' E 014°50'0 0.0
2014-Apr-03 23:14N 35°50' E 014°49'0 0.0
2014-Apr-03 22:32N 35°50' E 014°49'0 0.0
2014-Apr-03 21:23N 35°50' E 014°49'0 0.0
2014-Apr-03 20:26N 35°50' E 014°49'0 0.0
2014-Apr-03 18:32N 35°50' E 014°49'0 0.0
2014-Apr-03 17:32N 35°50' E 014°49'0 0.0
2014-Apr-03 16:32N 35°50' E 014°49'0 0.0
2014-Apr-03 15:32N 35°50' E 014°49'0 0.0
2014-Apr-03 14:23N 35°50' E 014°49'0 0.0
2014-Apr-03 11:05N 35°50' E 014°49'0 0.0
2014-Apr-03 10:23N 35°50' E 014°49'0 0.0
2014-Apr-03 09:32N 35°50' E 014°49'0 0.0
2014-Apr-03 08:32N 35°50' E 014°49'0 0.0
2014-Apr-03 07:32N 35°50' E 014°49'0 0.0
2014-Apr-03 05:26N 35°50' E 014°49'0 0.1
2014-Apr-03 04:17N 35°49' E 014°49'0 0.0
2014-Apr-03 03:29N 35°49' E 014°50'0 0.1
2014-Apr-03 02:08N 35°49' E 014°50'0 0.0
2014-Apr-03 01:29N 35°49' E 014°50'  

Dump ship's entire track history

sailing weather and tide predictions

Nautic — A8HQ3 — position and weather